Time;durP1;ratioP1;P1;durP2;ratioP2;P2;SDS_P1;SDS_P2;PMS_P1;PMS_P2;Temp;Humidity;BMP_temperature;BMP_pressure;BME280_temperature;BME280_humidity;BME280_pressure;Samples;Min_cycle;Max_cycle;Signal;HPM_P1;HPM_P2
2024/01/18 00:01:53;;;;;;;1.13;0.38;;;31.80;99.90;;;;;;4971275;28;20257;-69
2024/01/18 00:04:20;;;;;;;1.90;0.65;;;31.30;99.90;;;;;;4973123;28;20705;-70
2024/01/18 00:06:48;;;;;;;1.42;0.68;;;31.10;99.90;;;;;;4958118;28;20230;-70
2024/01/18 00:09:16;;;;;;;1.02;0.40;;;30.90;99.90;;;;;;4967781;28;20181;-69
2024/01/18 00:11:43;;;;;;;0.55;0.30;;;30.90;99.90;;;;;;4964540;28;20182;-69
2024/01/18 00:14:11;;;;;;;0.88;0.38;;;31.00;99.90;;;;;;4967956;28;20274;-69
2024/01/18 00:16:39;;;;;;;3.67;0.43;;;31.30;99.90;;;;;;4968148;28;20194;-69
2024/01/18 00:19:07;;;;;;;1.38;0.60;;;31.60;99.90;;;;;;4967386;28;20195;-69
2024/01/18 00:21:35;;;;;;;2.90;0.75;;;31.90;99.90;;;;;;4966082;28;20654;-69
2024/01/18 00:24:03;;;;;;;0.57;0.50;;;32.50;99.90;;;;;;4967724;28;20210;-70
2024/01/18 00:26:30;;;;;;;1.60;0.60;;;33.10;99.90;;;;;;4967758;28;20287;-68
2024/01/18 00:29:01;;;;;;;3.80;0.75;;;33.10;99.90;;;;;;4965674;28;20696;-67
2024/01/18 00:31:28;;;;;;;3.38;0.70;;;33.00;99.90;;;;;;4967206;28;20172;-67
2024/01/18 00:33:59;;;;;;;0.73;0.40;;;33.50;99.90;;;;;;4965728;28;20290;-67
2024/01/18 00:36:27;;;;;;;1.25;0.52;;;33.70;99.90;;;;;;4968054;28;20175;-69
2024/01/18 00:38:55;;;;;;;1.08;0.40;;;33.70;99.90;;;;;;4977235;28;20215;-68
2024/01/18 00:41:23;;;;;;;0.30;0.30;;;34.10;99.90;;;;;;4977211;28;20182;-69
2024/01/18 00:43:51;;;;;;;1.50;0.43;;;35.00;99.90;;;;;;4976858;28;20227;-68
2024/01/18 00:46:21;;;;;;;0.95;0.40;;;35.30;99.90;;;;;;4977134;28;20179;-69
2024/01/18 00:48:49;;;;;;;0.30;0.28;;;35.30;99.90;;;;;;4976873;28;20545;-68
2024/01/18 00:51:17;;;;;;;1.38;0.52;;;35.30;99.90;;;;;;4975766;28;20591;-68
2024/01/18 00:53:44;;;;;;;1.30;0.52;;;35.10;99.90;;;;;;4976762;28;20242;-68
2024/01/18 00:56:12;;;;;;;4.15;0.50;;;33.90;99.90;;;;;;4976722;28;20180;-68
2024/01/18 00:58:41;;;;;;;3.25;0.52;;;32.70;99.90;;;;;;4974909;28;20544;-68
2024/01/18 01:01:09;;;;;;;2.80;0.85;;;33.00;99.90;;;;;;4957439;28;20242;-69
2024/01/18 01:03:37;;;;;;;2.28;0.43;;;34.00;99.90;;;;;;4957412;28;20677;-69
2024/01/18 01:06:05;;;;;;;4.50;0.57;;;34.70;99.90;;;;;;4957383;28;20188;-69
2024/01/18 01:08:33;;;;;;;2.30;0.60;;;34.70;99.90;;;;;;4957310;28;20183;-69
2024/01/18 01:11:04;;;;;;;2.35;0.30;;;34.90;99.90;;;;;;4957192;28;20184;-68
2024/01/18 01:13:32;;;;;;;0.73;0.35;;;35.40;99.90;;;;;;4955821;29;20182;-69
2024/01/18 01:16:00;;;;;;;1.95;0.30;;;35.40;99.90;;;;;;4957242;28;20359;-69
2024/01/18 01:18:27;;;;;;;1.38;0.40;;;35.50;99.90;;;;;;4957161;28;20169;-69
2024/01/18 01:20:55;;;;;;;4.25;0.50;;;35.50;99.90;;;;;;4957119;28;20183;-69
2024/01/18 01:23:23;;;;;;;3.35;0.57;;;35.70;99.90;;;;;;4972064;28;20215;-69
2024/01/18 01:25:50;;;;;;;0.57;0.38;;;35.60;99.90;;;;;;4956465;28;20191;-69
2024/01/18 01:28:18;;;;;;;0.75;0.30;;;35.50;99.90;;;;;;4960137;28;20184;-71
2024/01/18 01:30:46;;;;;;;0.88;0.60;;;35.30;99.90;;;;;;4974656;28;20175;-70
2024/01/18 01:33:14;;;;;;;1.25;0.40;;;35.00;99.90;;;;;;4959042;28;20228;-69
2024/01/18 01:35:41;;;;;;;5.97;1.15;;;35.00;99.90;;;;;;4955246;28;20220;-69
2024/01/18 01:38:09;;;;;;;2.50;0.63;;;35.10;99.90;;;;;;4955189;28;20517;-72
2024/01/18 01:40:37;;;;;;;1.50;0.43;;;35.40;99.90;;;;;;4967266;28;20282;-69
2024/01/18 01:43:04;;;;;;;0.57;0.30;;;35.00;99.90;;;;;;4968440;28;20210;-70
2024/01/18 01:45:32;;;;;;;7.88;0.77;;;35.40;99.90;;;;;;4971122;28;20642;-69
2024/01/18 01:48:00;;;;;;;2.28;0.40;;;35.40;99.90;;;;;;4962318;28;20263;-69
2024/01/18 01:50:28;;;;;;;0.75;0.28;;;34.60;99.90;;;;;;4955054;28;20218;-69
2024/01/18 01:52:56;;;;;;;2.90;0.30;;;34.20;99.90;;;;;;4955400;28;20263;-69
2024/01/18 01:55:24;;;;;;;1.95;0.40;;;34.90;99.90;;;;;;4974331;28;20171;-70
2024/01/18 01:57:52;;;;;;;1.73;0.47;;;35.40;99.90;;;;;;4974237;28;20660;-76
2024/01/18 02:00:21;;;;;;;2.78;0.20;;;35.40;99.90;;;;;;4973901;28;20182;-74
2024/01/18 02:02:50;;;;;;;0.98;0.20;;;35.80;99.90;;;;;;4974213;28;20179;-72
2024/01/18 02:05:18;;;;;;;1.30;0.30;;;36.20;99.90;;;;;;4973094;28;20218;-73
2024/01/18 02:07:47;;;;;;;3.35;0.50;;;36.20;98.40;;;;;;4953932;28;20543;-70
2024/01/18 02:10:15;;;;;;;3.38;0.40;;;35.80;97.50;;;;;;4954641;28;20184;-69
2024/01/18 02:12:44;;;;;;;0.20;0.20;;;36.10;97.30;;;;;;4954672;28;20666;-70
2024/01/18 02:15:12;;;;;;;3.63;0.40;;;36.50;99.90;;;;;;4954541;28;20765;-69
2024/01/18 02:17:40;;;;;;;2.60;0.30;;;36.40;94.00;;;;;;4959604;28;20189;-70
2024/01/18 02:20:08;;;;;;;4.60;0.30;;;36.30;89.60;;;;;;4973742;28;20187;-71
2024/01/18 02:22:44;;;;;;;1.15;0.30;;;35.80;82.00;;;;;;4956836;28;20195;-69
2024/01/18 02:25:24;;;;;;;3.35;0.43;;;35.60;60.50;;;;;;4954410;28;20219;-69
2024/01/18 02:27:56;;;;;;;3.30;0.30;;;35.50;77.00;;;;;;4954333;28;20214;-70
2024/01/18 02:30:24;;;;;;;0.17;0.17;;;35.20;75.80;;;;;;4961388;28;20230;-75
2024/01/18 02:32:52;;;;;;;0.30;0.20;;;34.80;78.40;;;;;;4973164;28;20700;-73
2024/01/18 02:35:20;;;;;;;0.55;0.20;;;34.90;81.20;;;;;;4973579;28;20603;-74
2024/01/18 02:37:49;;;;;;;1.00;0.20;;;35.00;89.90;;;;;;4968356;28;20860;-73
2024/01/18 02:40:17;;;;;;;0.30;0.20;;;34.80;87.00;;;;;;4962244;28;20330;-70
2024/01/18 02:42:45;;;;;;;0.50;0.20;;;34.90;85.00;;;;;;4963045;28;20267;-69
2024/01/18 02:45:13;;;;;;;2.40;0.52;;;34.90;78.20;;;;;;4954112;28;20677;-69
2024/01/18 02:47:41;;;;;;;1.00;0.25;;;35.00;70.60;;;;;;4953881;28;20183;-71
2024/01/18 02:50:09;;;;;;;3.03;0.40;;;35.50;68.10;;;;;;4953909;29;20179;-70
2024/01/18 02:52:38;;;;;;;2.35;0.40;;;35.20;54.00;;;;;;4968800;28;20183;-69
2024/01/18 02:55:08;;;;;;;0.80;0.20;;;35.10;63.60;;;;;;4968645;28;20183;-70
2024/01/18 02:57:35;;;;;;;1.85;0.28;;;34.70;67.60;;;;;;4973052;28;20185;-68
2024/01/18 03:00:03;;;;;;;0.77;0.28;;;34.50;60.40;;;;;;4973112;28;20183;-70
2024/01/18 03:02:31;;;;;;;1.17;0.30;;;35.30;55.00;;;;;;4973124;28;20314;-69
2024/01/18 03:04:59;;;;;;;0.93;0.35;;;35.60;65.00;;;;;;4972130;28;20215;-70
2024/01/18 03:07:28;;;;;;;1.40;0.20;;;35.60;54.60;;;;;;4972932;28;20634;-69
2024/01/18 03:09:56;;;;;;;0.85;0.38;;;34.60;58.40;;;;;;4973109;28;20195;-69
2024/01/18 03:12:24;;;;;;;0.82;0.38;;;34.80;54.20;;;;;;4972756;28;20521;-69
2024/01/18 03:14:51;;;;;;;0.90;0.30;;;34.90;50.80;;;;;;4972935;28;20179;-74
2024/01/18 03:17:19;;;;;;;5.22;0.50;;;34.80;41.90;;;;;;4956914;28;20196;-75
2024/01/18 03:19:47;;;;;;;3.08;0.35;;;34.90;47.20;;;;;;4954028;28;20180;-73
2024/01/18 03:22:15;;;;;;;4.15;0.40;;;35.10;41.40;;;;;;4953512;29;20267;-71
2024/01/18 03:24:43;;;;;;;1.02;0.20;;;34.90;41.00;;;;;;4953494;28;20220;-70
2024/01/18 03:27:10;;;;;;;3.97;0.38;;;34.40;46.70;;;;;;4953587;28;20176;-69
2024/01/18 03:29:39;;;;;;;0.73;0.20;;;33.90;44.10;;;;;;4970353;28;20274;-69
2024/01/18 03:32:07;;;;;;;3.45;0.65;;;33.90;47.80;;;;;;4974571;28;20171;-69
2024/01/18 03:34:35;;;;;;;0.35;0.32;;;33.90;36.30;;;;;;4975488;28;20191;-69
2024/01/18 03:37:03;;;;;;;1.92;0.40;;;34.50;33.80;;;;;;4972411;28;20187;-70
2024/01/18 03:39:34;;;;;;;1.65;0.47;;;34.10;36.90;;;;;;4972694;28;20238;-69
2024/01/18 03:42:02;;;;;;;0.20;0.20;;;33.90;38.10;;;;;;4953525;28;20179;-69
2024/01/18 03:44:30;;;;;;;1.27;0.30;;;34.40;39.20;;;;;;4953226;29;20251;-69
2024/01/18 03:46:59;;;;;;;0.30;0.20;;;34.70;28.80;;;;;;4953352;28;20195;-69
2024/01/18 03:49:27;;;;;;;4.05;1.13;;;34.50;25.00;;;;;;4968086;28;20198;-70
2024/01/18 03:51:55;;;;;;;0.90;0.30;;;34.90;29.50;;;;;;4971247;28;20215;-70
2024/01/18 03:54:23;;;;;;;1.30;0.30;;;35.00;15.90;;;;;;4972379;28;20175;-73
2024/01/18 03:56:50;;;;;;;1.02;0.40;;;34.80;17.30;;;;;;4972459;28;20176;-75
2024/01/18 03:59:20;;;;;;;1.48;0.40;;;34.90;20.50;;;;;;4971001;28;20190;-77
2024/01/18 04:01:47;;;;;;;1.95;0.28;;;35.00;19.10;;;;;;4971104;28;20581;-74
2024/01/18 04:04:15;;;;;;;3.35;0.40;;;35.20;19.00;;;;;;4969067;28;20290;-75
2024/01/18 04:06:43;;;;;;;5.63;0.52;;;35.30;19.70;;;;;;4967368;28;20229;-73
2024/01/18 04:09:10;;;;;;;1.05;0.40;;;35.40;20.60;;;;;;4971156;28;20270;-74
2024/01/18 04:11:38;;;;;;;1.30;0.38;;;35.50;16.90;;;;;;4987409;28;20187;-74
2024/01/18 04:14:06;;;;;;;3.65;0.60;;;35.60;8.40;;;;;;4972319;28;20175;-73
2024/01/18 04:16:34;;;;;;;2.35;0.50;;;35.30;7.30;;;;;;4972396;28;20547;-73
2024/01/18 04:19:02;;;;;;;2.40;0.40;;;35.20;7.60;;;;;;4972387;28;20171;-73
2024/01/18 04:21:29;;;;;;;1.50;0.43;;;35.20;7.20;;;;;;4972391;28;20701;-76
2024/01/18 04:23:57;;;;;;;1.17;0.30;;;35.40;4.10;;;;;;4959489;28;20689;-73
2024/01/18 04:26:27;;;;;;;2.55;0.40;;;35.40;1.00;;;;;;4952981;28;20172;-73
2024/01/18 04:28:56;;;;;;;2.85;0.50;;;35.70;1.00;;;;;;4953046;28;20551;-75
2024/01/18 04:31:24;;;;;;;0.98;0.35;;;35.90;1.30;;;;;;4961379;28;20176;-73
2024/01/18 04:33:52;;;;;;;2.13;0.40;;;35.80;1.90;;;;;;4956634;28;20322;-74
2024/01/18 04:36:20;;;;;;;1.40;0.30;;;35.90;1.00;;;;;;4956607;28;20312;-76
2024/01/18 04:38:47;;;;;;;0.90;0.40;;;35.90;2.40;;;;;;4956487;28;20579;-73
2024/01/18 04:41:15;;;;;;;1.42;0.70;;;35.90;1.00;;;;;;4956293;28;20204;-77
2024/01/18 04:43:43;;;;;;;3.97;0.43;;;36.10;4.40;;;;;;4970123;28;20183;-73
2024/01/18 04:46:11;;;;;;;1.90;0.30;;;36.10;1.20;;;;;;4956235;28;20216;-76
2024/01/18 04:48:40;;;;;;;0.80;0.32;;;36.50;1.50;;;;;;4956402;28;20588;-73
2024/01/18 04:51:08;;;;;;;3.95;0.60;;;36.10;1.00;;;;;;4956179;28;20741;-74
2024/01/18 04:53:35;;;;;;;2.35;0.40;;;35.90;1.00;;;;;;4956473;28;20300;-73
2024/01/18 04:56:03;;;;;;;2.65;0.47;;;36.40;1.30;;;;;;4956055;28;20183;-73
2024/01/18 04:58:31;;;;;;;0.98;0.50;;;36.20;1.00;;;;;;4956451;28;20176;-74
2024/01/18 05:00:58;;;;;;;2.35;0.40;;;35.90;1.00;;;;;;4975075;28;20559;-73
2024/01/18 05:03:26;;;;;;;3.30;0.65;;;35.80;1.00;;;;;;4973187;28;20179;-73
2024/01/18 05:05:56;;;;;;;3.05;0.35;;;35.50;1.00;;;;;;4954537;29;20564;-73
2024/01/18 05:08:24;;;;;;;4.38;0.30;;;35.40;1.00;;;;;;4954530;29;20560;-74
2024/01/18 05:10:53;;;;;;;2.97;0.70;;;35.70;1.00;;;;;;4954548;29;20215;-73
2024/01/18 05:13:21;;;;;;;0.82;0.40;;;35.00;1.00;;;;;;4956526;28;20188;-72
2024/01/18 05:15:49;;;;;;;3.70;0.50;;;34.90;1.00;;;;;;4989963;28;20179;-73
2024/01/18 05:18:17;;;;;;;4.13;0.70;;;35.20;1.00;;;;;;4975128;28;20183;-73
2024/01/18 05:20:44;;;;;;;0.70;0.60;;;35.20;1.00;;;;;;4974803;28;20190;-73
2024/01/18 05:23:12;;;;;;;1.73;0.50;;;35.10;1.00;;;;;;4974934;28;20179;-73
2024/01/18 05:25:40;;;;;;;2.58;0.32;;;34.90;1.00;;;;;;4974445;28;20218;-73
2024/01/18 05:28:07;;;;;;;1.13;0.38;;;35.20;1.00;;;;;;4974448;28;20265;-72
2024/01/18 05:30:35;;;;;;;0.68;0.32;;;35.40;1.00;;;;;;4974722;28;20184;-73
2024/01/18 05:33:04;;;;;;;5.20;0.98;;;35.60;1.00;;;;;;4966165;28;20258;-72
2024/01/18 05:35:32;;;;;;;1.20;0.50;;;35.70;1.00;;;;;;4974095;28;20184;-72
2024/01/18 05:38:00;;;;;;;1.90;0.50;;;35.40;1.00;;;;;;4974553;28;20182;-72
2024/01/18 05:40:27;;;;;;;1.20;0.50;;;35.30;1.00;;;;;;4974198;28;20300;-73
2024/01/18 05:42:55;;;;;;;0.80;0.47;;;35.10;1.00;;;;;;4964309;28;20192;-72
2024/01/18 05:45:23;;;;;;;3.50;0.40;;;35.20;1.00;;;;;;4955150;28;20215;-72
2024/01/18 05:47:51;;;;;;;4.10;0.50;;;35.20;1.00;;;;;;4955306;28;20188;-73
2024/01/18 05:50:18;;;;;;;0.60;0.32;;;34.80;1.00;;;;;;4954812;28;20191;-72
2024/01/18 05:52:46;;;;;;;1.13;0.40;;;35.00;1.00;;;;;;4954871;28;20184;-72
2024/01/18 05:55:14;;;;;;;1.08;0.32;;;34.80;1.00;;;;;;4954894;28;20239;-73
2024/01/18 05:57:41;;;;;;;3.35;0.45;;;34.50;1.00;;;;;;4955276;28;20180;-72
2024/01/18 06:00:10;;;;;;;1.33;0.30;;;34.70;1.00;;;;;;4954685;28;20184;-73
2024/01/18 06:02:38;;;;;;;3.88;0.43;;;34.80;1.00;;;;;;4954736;28;20183;-73
2024/01/18 06:05:06;;;;;;;1.80;0.40;;;34.90;1.00;;;;;;4970492;28;20231;-72
2024/01/18 06:07:34;;;;;;;3.80;0.50;;;35.20;1.00;;;;;;4973884;28;20550;-73
2024/01/18 06:10:03;;;;;;;2.13;0.40;;;35.30;1.00;;;;;;4973991;28;20241;-74
2024/01/18 06:12:32;;;;;;;1.48;0.50;;;35.10;1.00;;;;;;4973466;28;20180;-73
2024/01/18 06:15:00;;;;;;;2.53;0.50;;;35.00;1.00;;;;;;4967508;28;20602;-72
2024/01/18 06:17:27;;;;;;;1.65;0.47;;;34.90;1.00;;;;;;4954255;28;20179;-73
2024/01/18 06:19:55;;;;;;;8.25;0.70;;;34.80;1.00;;;;;;4954694;28;20718;-75
2024/01/18 06:22:23;;;;;;;1.00;0.38;;;34.70;1.00;;;;;;4954238;28;20596;-74
2024/01/18 06:24:50;;;;;;;2.75;0.38;;;34.60;1.00;;;;;;4955390;28;20607;-75
2024/01/18 06:27:18;;;;;;;5.88;0.65;;;34.70;1.00;;;;;;4954335;28;20850;-72
2024/01/18 06:29:47;;;;;;;7.95;0.80;;;34.60;1.00;;;;;;4965579;28;20278;-76
2024/01/18 06:32:15;;;;;;;1.85;0.43;;;34.60;1.00;;;;;;4988275;28;20590;-75
2024/01/18 06:34:43;;;;;;;1.02;0.38;;;34.90;1.00;;;;;;4959081;28;20529;-76
2024/01/18 06:37:11;;;;;;;2.47;0.40;;;34.60;1.00;;;;;;4954152;28;20381;-76
2024/01/18 06:39:39;;;;;;;2.40;0.40;;;34.50;1.00;;;;;;4953113;29;20320;-73
2024/01/18 06:42:08;;;;;;;0.82;0.22;;;34.70;1.00;;;;;;4953718;28;20191;-75
2024/01/18 06:44:38;;;;;;;1.00;0.30;;;34.60;1.00;;;;;;4967653;28;20223;-75
2024/01/18 06:47:06;;;;;;;1.60;0.40;;;34.60;1.00;;;;;;4973574;28;20171;-75
2024/01/18 06:49:33;;;;;;;1.17;0.20;;;34.50;1.00;;;;;;4973278;28;20179;-76
2024/01/18 06:52:02;;;;;;;4.65;0.50;;;34.20;1.00;;;;;;4972408;28;20214;-76
2024/01/18 06:54:29;;;;;;;1.83;0.43;;;34.20;1.00;;;;;;4971541;28;20699;-76
2024/01/18 06:56:57;;;;;;;2.17;0.43;;;34.10;1.00;;;;;;4973171;28;20265;-74
2024/01/18 06:59:25;;;;;;;7.63;0.45;;;34.00;1.00;;;;;;4973212;28;20171;-75
2024/01/18 07:01:52;;;;;;;1.38;0.63;;;34.10;1.00;;;;;;4972976;28;20203;-74
2024/01/18 07:04:21;;;;;;;1.10;0.30;;;34.30;1.00;;;;;;4962575;28;20232;-74
2024/01/18 07:06:49;;;;;;;3.70;0.30;;;34.00;1.00;;;;;;4954127;28;20179;-75
2024/01/18 07:09:16;;;;;;;1.63;0.40;;;33.60;1.00;;;;;;4953689;28;20184;-75
2024/01/18 07:11:46;;;;;;;2.60;0.45;;;33.50;1.00;;;;;;4954914;28;20183;-75
2024/01/18 07:14:14;;;;;;;3.35;0.65;;;33.70;1.00;;;;;;4953712;28;20192;-75
2024/01/18 07:16:41;;;;;;;1.48;0.40;;;33.90;1.00;;;;;;4954950;28;20180;-75
2024/01/18 07:19:09;;;;;;;2.00;0.45;;;33.70;1.00;;;;;;4953789;29;20236;-74
2024/01/18 07:21:37;;;;;;;3.88;0.80;;;33.40;1.00;;;;;;4954833;28;20638;-73
2024/01/18 07:24:05;;;;;;;6.25;0.68;;;33.40;1.00;;;;;;4955002;28;20216;-73
2024/01/18 07:26:33;;;;;;;2.60;0.40;;;33.40;1.00;;;;;;4959965;28;20176;-73
2024/01/18 07:29:00;;;;;;;0.40;0.30;;;33.40;1.00;;;;;;4973997;28;20181;-74
2024/01/18 07:31:29;;;;;;;1.52;0.50;;;33.30;1.00;;;;;;4974611;28;20222;-73
2024/01/18 07:33:56;;;;;;;4.18;0.40;;;33.20;1.00;;;;;;4974439;28;20595;-73
2024/01/18 07:36:24;;;;;;;1.95;0.38;;;33.20;1.00;;;;;;4973137;28;20223;-74
2024/01/18 07:38:51;;;;;;;1.08;0.38;;;33.10;1.00;;;;;;4958017;28;20617;-74
2024/01/18 07:41:19;;;;;;;2.38;0.60;;;32.90;1.00;;;;;;4945467;28;20219;-74
2024/01/18 07:43:47;;;;;;;0.50;0.43;;;33.10;1.00;;;;;;4953339;29;20180;-76
2024/01/18 07:46:15;;;;;;;1.20;0.40;;;33.10;1.00;;;;;;4953453;29;20218;-75
2024/01/18 07:48:43;;;;;;;1.27;0.43;;;33.40;1.00;;;;;;4955578;28;20176;-74
2024/01/18 07:51:10;;;;;;;1.60;0.57;;;33.30;1.00;;;;;;4969140;28;20258;-75
2024/01/18 07:53:38;;;;;;;4.40;0.55;;;33.50;1.00;;;;;;4953259;28;20184;-74
2024/01/18 07:56:06;;;;;;;1.00;0.50;;;33.50;1.00;;;;;;4953940;29;20184;-78
2024/01/18 07:58:33;;;;;;;1.67;0.47;;;33.40;1.00;;;;;;4953215;28;20263;-75
2024/01/18 08:01:01;;;;;;;1.58;0.47;;;33.20;1.00;;;;;;4953067;28;20187;-75
2024/01/18 08:03:29;;;;;;;0.75;0.40;;;33.20;1.00;;;;;;4958442;28;20183;-77
2024/01/18 08:05:56;;;;;;;4.05;0.85;;;33.10;1.00;;;;;;4959252;28;20355;-77
2024/01/18 08:08:24;;;;;;;3.47;0.60;;;33.10;1.00;;;;;;4955929;29;20184;-75
2024/01/18 08:10:52;;;;;;;4.68;0.73;;;33.20;1.00;;;;;;4956774;28;20261;-74
2024/01/18 08:13:19;;;;;;;1.20;0.60;;;32.90;1.00;;;;;;4959722;28;20183;-75
2024/01/18 08:15:47;;;;;;;6.95;0.60;;;32.70;1.00;;;;;;4974694;28;20187;-75
2024/01/18 08:18:16;;;;;;;1.98;0.60;;;32.70;1.00;;;;;;4976163;28;20175;-75
2024/01/18 08:20:43;;;;;;;3.08;0.60;;;32.60;1.00;;;;;;4972612;28;20172;-76
2024/01/18 08:23:11;;;;;;;1.30;0.40;;;32.40;1.00;;;;;;4976762;28;20278;-74
2024/01/18 08:25:39;;;;;;;3.45;0.40;;;32.20;1.00;;;;;;4960819;28;20246;-73
2024/01/18 08:28:07;;;;;;;2.90;0.65;;;32.10;1.00;;;;;;4975977;28;20682;-73
2024/01/18 08:30:34;;;;;;;2.60;0.63;;;32.00;1.00;;;;;;4977271;28;20548;-74
2024/01/18 08:33:03;;;;;;;2.50;0.50;;;31.90;1.00;;;;;;4971837;28;20249;-73
2024/01/18 08:35:30;;;;;;;5.78;1.88;;;31.70;1.00;;;;;;4976522;28;20175;-74
2024/01/18 08:37:58;;;;;;;8.57;1.70;;;31.40;4.80;;;;;;4976953;28;20205;-74
2024/01/18 08:43:48;;;;;;;10.57;2.42;;;30.60;99.90;;;;;;4957311;29;20271;-74
2024/01/18 08:46:16;;;;;;;11.07;2.67;;;30.10;99.90;;;;;;4957734;28;20191;-76
2024/01/18 08:48:43;;;;;;;13.17;2.70;;;29.90;99.90;;;;;;4958017;28;20180;-76
2024/01/18 08:51:14;;;;;;;10.47;2.87;;;29.60;99.90;;;;;;4957739;28;20262;-75
2024/01/18 08:53:42;;;;;;;13.18;2.78;;;29.40;99.90;;;;;;4957786;28;20184;-76
2024/01/18 08:56:10;;;;;;;11.20;3.33;;;29.20;99.90;;;;;;4964213;28;20251;-76
2024/01/18 08:58:37;;;;;;;12.63;3.20;;;29.00;99.90;;;;;;4958430;28;20180;-76
2024/01/18 09:01:05;;;;;;;11.33;3.03;;;28.60;99.90;;;;;;4969302;28;20184;-75
2024/01/18 09:03:33;;;;;;;11.17;3.07;;;28.30;99.90;;;;;;4957882;28;20537;-76
2024/01/18 09:06:01;;;;;;;18.43;3.17;;;28.20;99.90;;;;;;4957426;28;20262;-75
2024/01/18 09:08:28;;;;;;;10.87;2.80;;;28.00;99.90;;;;;;4957563;28;20179;-76
2024/01/18 09:10:56;;;;;;;13.13;3.20;;;27.80;99.90;;;;;;4957451;28;20303;-75
2024/01/18 09:13:24;;;;;;;11.07;2.73;;;27.80;99.90;;;;;;4957583;28;20183;-74
2024/01/18 09:15:51;;;;;;;13.70;3.13;;;27.80;99.90;;;;;;4956889;28;20207;-75
2024/01/18 09:18:19;;;;;;;9.27;2.60;;;27.60;99.90;;;;;;4957588;28;20179;-76
2024/01/18 09:20:47;;;;;;;13.67;3.03;;;27.40;99.90;;;;;;4957241;28;20176;-74
2024/01/18 09:23:15;;;;;;;15.90;3.03;;;27.30;99.90;;;;;;4957189;28;20180;-75
2024/01/18 09:25:45;;;;;;;16.60;3.40;;;27.20;99.90;;;;;;4957019;28;20306;-74
2024/01/18 09:28:13;;;;;;;12.57;3.33;;;27.10;99.90;;;;;;4957071;28;20176;-76
2024/01/18 09:30:40;;;;;;;17.10;3.47;;;27.00;99.90;;;;;;4955831;29;20226;-74
2024/01/18 09:33:08;;;;;;;16.33;3.23;;;26.80;99.90;;;;;;4956646;28;20236;-74
2024/01/18 09:35:38;;;;;;;17.00;3.73;;;26.70;99.90;;;;;;4957230;28;20176;-76
2024/01/18 09:38:05;;;;;;;17.43;3.80;;;26.60;99.90;;;;;;4957024;28;20312;-75
2024/01/18 09:40:33;;;;;;;14.77;3.63;;;26.60;99.90;;;;;;4955974;29;20180;-76
2024/01/18 09:43:07;;;;;;;14.43;3.13;;;26.50;99.90;;;;;;4957076;28;20239;-75
2024/01/18 09:45:40;;;;;;;16.40;3.27;;;26.40;99.90;;;;;;4956852;28;20207;-76
2024/01/18 09:48:08;;;;;;;17.67;3.30;;;26.20;99.90;;;;;;4957017;28;20172;-76
2024/01/18 09:50:43;;;;;;;19.50;3.17;;;26.20;99.90;;;;;;4957067;28;20697;-74
2024/01/18 09:53:14;;;;;;;15.23;3.47;;;26.20;99.90;;;;;;4956908;28;20183;-75
2024/01/18 09:55:43;;;;;;;14.57;3.60;;;26.00;99.90;;;;;;4956918;28;20179;-76
2024/01/18 09:58:14;;;;;;;15.80;3.53;;;26.10;99.90;;;;;;4956821;28;20183;-76
2024/01/18 10:00:47;;;;;;;10.23;3.30;;;26.00;99.90;;;;;;4956581;28;20211;-75
2024/01/18 10:03:15;;;;;;;15.27;3.37;;;26.00;99.90;;;;;;4956689;28;20180;-76
2024/01/18 10:05:44;;;;;;;17.07;3.20;;;25.90;99.90;;;;;;4956319;28;20223;-75
2024/01/18 10:11:24;;;;;;;14.10;3.40;;;25.70;99.90;;;;;;4956446;29;20230;-73
2024/01/18 10:13:53;;;;;;;12.37;3.23;;;25.60;99.90;;;;;;4956315;28;20177;-76
2024/01/18 10:16:28;;;;;;;8.13;2.40;;;25.60;99.90;;;;;;4956010;28;20184;-74
2024/01/18 10:19:00;;;;;;;4.73;1.57;;;25.50;99.90;;;;;;4956326;28;20183;-74
2024/01/18 10:21:29;;;;;;;5.07;1.30;;;25.60;99.90;;;;;;4956181;28;20172;-74
2024/01/18 10:23:57;;;;;;;3.83;1.40;;;25.80;99.90;;;;;;4954794;29;20617;-74
2024/01/18 10:26:34;;;;;;;7.00;1.80;;;26.30;99.90;;;;;;4956066;28;20219;-74
2024/01/18 10:29:02;;;;;;;7.13;1.50;;;26.40;99.90;;;;;;4955586;28;20176;-74
2024/01/18 10:31:31;;;;;;;3.37;1.40;;;26.40;99.90;;;;;;4955738;28;20192;-73
2024/01/18 10:33:58;;;;;;;6.77;1.87;;;26.50;99.90;;;;;;4955879;28;20633;-73
2024/01/18 10:36:27;;;;;;;9.77;1.90;;;26.40;99.90;;;;;;4955813;28;20180;-73
2024/01/18 10:38:55;;;;;;;7.57;1.93;;;26.30;99.90;;;;;;4956230;28;20172;-73
2024/01/18 10:41:23;;;;;;;8.37;2.00;;;26.10;99.90;;;;;;4955848;28;20585;-74
2024/01/18 10:43:50;;;;;;;10.93;2.23;;;26.00;99.90;;;;;;4955736;28;20258;-74
2024/01/18 10:46:19;;;;;;;11.43;2.30;;;25.80;99.90;;;;;;4954578;29;20191;-73
2024/01/18 10:48:49;;;;;;;8.30;2.50;;;25.60;99.90;;;;;;4956081;28;20183;-73
2024/01/18 10:51:17;;;;;;;7.20;2.00;;;25.50;99.90;;;;;;4956061;28;20649;-74
2024/01/18 10:53:47;;;;;;;8.57;2.33;;;25.40;99.90;;;;;;4955723;28;20176;-74
2024/01/18 10:56:14;;;;;;;11.30;2.17;;;;;;;;;;4955818;28;20226;-73
2024/01/18 10:58:42;;;;;;;10.30;2.57;;;25.10;99.90;;;;;;4955606;28;20177;-74
2024/01/18 11:01:11;;;;;;;7.67;2.43;;;25.00;99.90;;;;;;4955770;28;20184;-73
2024/01/18 11:03:38;;;;;;;9.13;2.50;;;24.90;99.90;;;;;;4955634;28;20180;-75
2024/01/18 11:06:09;;;;;;;12.73;2.30;;;24.70;99.90;;;;;;4955391;29;20266;-74
2024/01/18 11:08:38;;;;;;;6.07;1.90;;;24.70;99.90;;;;;;4955554;28;20176;-75
2024/01/18 11:11:06;;;;;;;5.67;1.70;;;24.60;99.90;;;;;;4955377;28;20736;-74
2024/01/18 11:13:35;;;;;;;4.17;1.40;;;24.60;99.90;;;;;;4955188;28;20180;-74
2024/01/18 11:16:04;;;;;;;3.47;1.10;;;24.60;99.90;;;;;;4955393;28;20518;-74
2024/01/18 11:18:34;;;;;;;3.13;1.13;;;24.60;99.90;;;;;;4955185;28;20251;-74
2024/01/18 11:21:08;;;;;;;2.63;0.80;;;24.50;99.90;;;;;;4955164;28;20209;-74
2024/01/18 11:23:40;;;;;;;2.80;0.83;;;24.60;99.90;;;;;;4955216;28;20183;-74
2024/01/18 11:26:17;;;;;;;3.07;1.00;;;24.60;99.90;;;;;;4955143;28;20545;-75
2024/01/18 11:28:45;;;;;;;3.90;1.00;;;24.60;99.90;;;;;;4953866;29;20560;-74
2024/01/18 11:31:13;;;;;;;3.40;1.03;;;24.40;99.90;;;;;;4954829;28;20618;-74
2024/01/18 11:33:41;;;;;;;3.37;1.30;;;24.30;99.90;;;;;;4953328;29;20756;-74
2024/01/18 11:36:13;;;;;;;3.67;0.80;;;24.20;99.90;;;;;;4955229;28;20319;-74
2024/01/18 11:38:48;;;;;;;3.50;0.60;;;24.20;99.90;;;;;;4954554;28;20192;-75
2024/01/18 11:41:23;;;;;;;2.10;0.80;;;24.10;99.90;;;;;;4958907;28;20265;-74
2024/01/18 11:44:07;;;;;;;1.70;0.63;;;24.10;99.90;;;;;;4958114;29;20213;-74
2024/01/18 11:46:45;;;;;;;1.07;0.70;;;24.00;99.90;;;;;;4958875;28;20184;-74
2024/01/18 11:49:12;;;;;;;2.83;0.73;;;23.90;99.90;;;;;;4957722;29;20218;-73
2024/01/18 11:51:41;;;;;;;4.00;0.70;;;23.70;99.90;;;;;;4959039;28;20184;-73
2024/01/18 11:54:10;;;;;;;3.40;0.57;;;23.50;99.90;;;;;;4960350;28;20677;-73
2024/01/18 11:56:38;;;;;;;7.73;0.60;;;23.40;99.90;;;;;;4963115;28;20319;-73
2024/01/18 11:59:08;;;;;;;0.93;0.73;;;23.20;99.90;;;;;;4964008;28;20198;-75
2024/01/18 12:01:36;;;;;;;1.43;0.63;;;23.10;99.90;;;;;;4971195;28;20187;-73
2024/01/18 12:04:03;;;;;;;4.10;0.80;;;23.20;99.90;;;;;;4964806;28;20203;-74
2024/01/18 12:06:32;;;;;;;5.03;0.90;;;23.10;99.90;;;;;;4964549;28;20191;-73
2024/01/18 12:09:00;;;;;;;2.90;0.77;;;23.00;99.90;;;;;;4977235;28;20530;-74
2024/01/18 12:11:28;;;;;;;3.83;0.60;;;22.80;99.90;;;;;;4967257;28;20739;-74
2024/01/18 12:13:56;;;;;;;3.07;0.63;;;22.60;99.90;;;;;;4958663;28;20180;-74
2024/01/18 12:16:23;;;;;;;7.10;0.90;;;22.40;99.90;;;;;;4958855;28;20235;-71
2024/01/18 12:18:51;;;;;;;5.83;0.80;;;22.20;99.90;;;;;;4969563;28;20736;-72
2024/01/18 12:21:19;;;;;;;3.50;0.67;;;22.10;99.90;;;;;;4971173;28;20191;-73
2024/01/18 12:23:48;;;;;;;1.27;0.60;;;22.00;99.90;;;;;;4964030;28;20637;-72
2024/01/18 12:26:17;;;;;;;4.53;1.10;;;22.00;99.90;;;;;;4961524;28;20286;-73
2024/01/18 12:28:46;;;;;;;2.27;0.70;;;21.90;99.90;;;;;;4959617;28;20180;-74
2024/01/18 12:31:14;;;;;;;0.57;0.50;;;21.80;99.90;;;;;;4967800;28;20208;-73
2024/01/18 12:33:41;;;;;;;2.73;0.70;;;21.70;99.90;;;;;;4975267;28;20227;-73
2024/01/18 12:36:10;;;;;;;2.53;1.00;;;21.60;99.90;;;;;;4977754;28;20210;-74
2024/01/18 12:38:37;;;;;;;3.03;0.70;;;21.50;99.90;;;;;;4976628;28;20249;-72
2024/01/18 12:41:05;;;;;;;3.40;0.70;;;21.50;99.90;;;;;;4958075;28;20183;-73
2024/01/18 12:43:33;;;;;;;6.03;1.20;;;21.50;99.90;;;;;;4958257;28;20180;-74
2024/01/18 12:46:01;;;;;;;2.33;0.90;;;21.50;99.90;;;;;;4957984;28;20347;-72
2024/01/18 12:48:29;;;;;;;3.03;0.60;;;21.40;99.90;;;;;;4956670;29;20227;-74
2024/01/18 12:50:56;;;;;;;2.70;0.80;;;21.40;99.90;;;;;;4957442;28;20180;-74
2024/01/18 12:53:25;;;;;;;5.70;0.77;;;21.30;99.90;;;;;;4961971;28;20190;-73
2024/01/18 12:55:53;;;;;;;3.80;0.90;;;21.20;99.90;;;;;;4957906;28;20535;-73
2024/01/18 12:58:22;;;;;;;4.83;0.63;;;21.10;99.90;;;;;;4961204;28;20179;-73
2024/01/18 13:00:53;;;;;;;4.97;0.73;;;21.20;99.90;;;;;;4975220;28;20187;-72
2024/01/18 13:06:45;;;;;;;2.80;0.80;;;21.30;99.90;;;;;;4974695;28;20210;-74